sensor_id;sensor_type;location;lat;lon;timestamp;temperature;humidity
34147;DHT22;20423;49.448;9.056;2023-04-03T00:01:08;-0.90;99.90
34147;DHT22;20423;49.448;9.056;2023-04-03T00:03:34;-0.70;99.90
34147;DHT22;20423;49.448;9.056;2023-04-03T00:06:01;-0.80;99.90
34147;DHT22;20423;49.448;9.056;2023-04-03T00:08:26;-0.80;99.90
34147;DHT22;20423;49.448;9.056;2023-04-03T00:10:52;-0.90;99.90
34147;DHT22;20423;49.448;9.056;2023-04-03T00:13:18;-0.90;99.90
34147;DHT22;20423;49.448;9.056;2023-04-03T00:15:44;-0.90;99.90
34147;DHT22;20423;49.448;9.056;2023-04-03T00:18:10;-0.90;99.90
34147;DHT22;20423;49.448;9.056;2023-04-03T00:20:36;-1.00;99.90
34147;DHT22;20423;49.448;9.056;2023-04-03T00:23:02;-1.10;99.90
34147;DHT22;20423;49.448;9.056;2023-04-03T00:25:28;-1.10;99.90
34147;DHT22;20423;49.448;9.056;2023-04-03T00:27:54;-1.20;99.90
34147;DHT22;20423;49.448;9.056;2023-04-03T00:30:21;-1.20;99.90
34147;DHT22;20423;49.448;9.056;2023-04-03T00:32:49;-1.20;99.90
34147;DHT22;20423;49.448;9.056;2023-04-03T00:35:15;-1.30;99.90
34147;DHT22;20423;49.448;9.056;2023-04-03T00:37:44;-1.30;99.90
34147;DHT22;20423;49.448;9.056;2023-04-03T00:40:12;-1.30;99.90
34147;DHT22;20423;49.448;9.056;2023-04-03T00:42:43;-1.30;99.90
34147;DHT22;20423;49.448;9.056;2023-04-03T00:47:51;-1.40;99.90
34147;DHT22;20423;49.448;9.056;2023-04-03T00:50:17;-1.40;99.90
34147;DHT22;20423;49.448;9.056;2023-04-03T00:52:43;-1.30;99.90
34147;DHT22;20423;49.448;9.056;2023-04-03T00:55:12;-1.40;99.90
34147;DHT22;20423;49.448;9.056;2023-04-03T00:57:40;-1.40;99.90
34147;DHT22;20423;49.448;9.056;2023-04-03T01:00:31;-1.30;99.90
34147;DHT22;20423;49.448;9.056;2023-04-03T01:02:57;-1.30;99.90
34147;DHT22;20423;49.448;9.056;2023-04-03T01:05:23;-1.40;99.90
34147;DHT22;20423;49.448;9.056;2023-04-03T01:07:51;-1.40;99.90
34147;DHT22;20423;49.448;9.056;2023-04-03T01:10:45;-1.50;99.90
34147;DHT22;20423;49.448;9.056;2023-04-03T01:13:38;-1.50;99.90
34147;DHT22;20423;49.448;9.056;2023-04-03T01:16:06;-1.50;99.90
34147;DHT22;20423;49.448;9.056;2023-04-03T01:18:33;-1.50;99.90
34147;DHT22;20423;49.448;9.056;2023-04-03T01:21:10;-1.40;99.90
34147;DHT22;20423;49.448;9.056;2023-04-03T01:26:10;-1.20;99.90
34147;DHT22;20423;49.448;9.056;2023-04-03T01:28:37;-1.20;99.90
34147;DHT22;20423;49.448;9.056;2023-04-03T01:33:36;-1.00;99.90
34147;DHT22;20423;49.448;9.056;2023-04-03T01:36:03;-0.90;99.90
34147;DHT22;20423;49.448;9.056;2023-04-03T01:38:29;-0.80;99.90
34147;DHT22;20423;49.448;9.056;2023-04-03T01:40:55;-0.80;99.90
34147;DHT22;20423;49.448;9.056;2023-04-03T01:43:21;-0.70;99.90
34147;DHT22;20423;49.448;9.056;2023-04-03T01:49:21;-0.60;99.90
34147;DHT22;20423;49.448;9.056;2023-04-03T01:51:47;-0.70;99.90
34147;DHT22;20423;49.448;9.056;2023-04-03T01:54:14;-0.80;99.90
34147;DHT22;20423;49.448;9.056;2023-04-03T01:56:39;-0.90;99.90
34147;DHT22;20423;49.448;9.056;2023-04-03T01:59:05;-1.00;99.90
34147;DHT22;20423;49.448;9.056;2023-04-03T02:01:31;-1.10;99.90
34147;DHT22;20423;49.448;9.056;2023-04-03T02:03:56;-1.20;99.90
34147;DHT22;20423;49.448;9.056;2023-04-03T02:06:22;-1.30;99.90
34147;DHT22;20423;49.448;9.056;2023-04-03T02:08:48;-1.40;99.90
34147;DHT22;20423;49.448;9.056;2023-04-03T02:11:13;-1.40;99.90
34147;DHT22;20423;49.448;9.056;2023-04-03T02:13:39;-1.50;99.90
34147;DHT22;20423;49.448;9.056;2023-04-03T02:16:07;-1.60;99.90
34147;DHT22;20423;49.448;9.056;2023-04-03T02:18:33;-1.70;99.90
34147;DHT22;20423;49.448;9.056;2023-04-03T02:20:59;-1.70;99.90
34147;DHT22;20423;49.448;9.056;2023-04-03T02:23:25;-1.70;99.90
34147;DHT22;20423;49.448;9.056;2023-04-03T02:25:51;-1.80;99.90
34147;DHT22;20423;49.448;9.056;2023-04-03T02:28:17;-1.80;99.90
34147;DHT22;20423;49.448;9.056;2023-04-03T02:30:42;-1.90;99.90
34147;DHT22;20423;49.448;9.056;2023-04-03T02:33:09;-2.00;99.90
34147;DHT22;20423;49.448;9.056;2023-04-03T02:35:36;-2.00;99.90
34147;DHT22;20423;49.448;9.056;2023-04-03T02:38:30;-2.00;99.90
34147;DHT22;20423;49.448;9.056;2023-04-03T02:41:00;-2.10;99.90
34147;DHT22;20423;49.448;9.056;2023-04-03T02:43:26;-2.10;99.90
34147;DHT22;20423;49.448;9.056;2023-04-03T02:45:53;-2.20;99.90
34147;DHT22;20423;49.448;9.056;2023-04-03T02:48:18;-2.20;99.90
34147;DHT22;20423;49.448;9.056;2023-04-03T02:50:44;-2.20;99.90
34147;DHT22;20423;49.448;9.056;2023-04-03T02:53:10;-2.20;99.90
34147;DHT22;20423;49.448;9.056;2023-04-03T02:55:36;-2.20;99.90
34147;DHT22;20423;49.448;9.056;2023-04-03T02:58:17;-2.20;99.90
34147;DHT22;20423;49.448;9.056;2023-04-03T03:00:43;-2.00;99.90
34147;DHT22;20423;49.448;9.056;2023-04-03T03:03:08;-2.00;99.90
34147;DHT22;20423;49.448;9.056;2023-04-03T03:05:34;-2.00;99.90
34147;DHT22;20423;49.448;9.056;2023-04-03T03:08:00;-2.10;99.90
34147;DHT22;20423;49.448;9.056;2023-04-03T03:10:26;-2.00;99.90
34147;DHT22;20423;49.448;9.056;2023-04-03T03:12:51;-1.90;99.90
34147;DHT22;20423;49.448;9.056;2023-04-03T03:18:28;-1.80;99.90
34147;DHT22;20423;49.448;9.056;2023-04-03T03:20:59;-1.80;99.90
34147;DHT22;20423;49.448;9.056;2023-04-03T03:23:27;-1.80;99.90
34147;DHT22;20423;49.448;9.056;2023-04-03T03:26:02;-1.80;99.90
34147;DHT22;20423;49.448;9.056;2023-04-03T03:28:28;-1.80;99.90
34147;DHT22;20423;49.448;9.056;2023-04-03T03:30:54;-1.90;99.90
34147;DHT22;20423;49.448;9.056;2023-04-03T03:33:21;-2.00;99.90
34147;DHT22;20423;49.448;9.056;2023-04-03T03:35:47;-2.00;99.90
34147;DHT22;20423;49.448;9.056;2023-04-03T03:38:12;-2.00;99.90
34147;DHT22;20423;49.448;9.056;2023-04-03T03:40:38;-1.90;99.90
34147;DHT22;20423;49.448;9.056;2023-04-03T03:43:04;-1.80;99.90
34147;DHT22;20423;49.448;9.056;2023-04-03T03:45:31;-1.90;99.90
34147;DHT22;20423;49.448;9.056;2023-04-03T03:47:56;-1.80;99.90
34147;DHT22;20423;49.448;9.056;2023-04-03T03:50:22;-1.80;99.90
34147;DHT22;20423;49.448;9.056;2023-04-03T03:52:49;-1.80;99.90
34147;DHT22;20423;49.448;9.056;2023-04-03T03:55:15;-1.80;99.90
34147;DHT22;20423;49.448;9.056;2023-04-03T03:57:41;-1.80;99.90
34147;DHT22;20423;49.448;9.056;2023-04-03T04:00:07;-1.90;99.90
34147;DHT22;20423;49.448;9.056;2023-04-03T04:02:41;-1.80;99.90
34147;DHT22;20423;49.448;9.056;2023-04-03T04:05:09;-1.80;99.90
34147;DHT22;20423;49.448;9.056;2023-04-03T04:07:36;-1.80;99.90
34147;DHT22;20423;49.448;9.056;2023-04-03T04:10:03;-1.70;99.90
34147;DHT22;20423;49.448;9.056;2023-04-03T04:12:30;-1.70;99.90
34147;DHT22;20423;49.448;9.056;2023-04-03T04:14:56;-1.70;99.90
34147;DHT22;20423;49.448;9.056;2023-04-03T04:17:22;-1.80;99.90
34147;DHT22;20423;49.448;9.056;2023-04-03T04:19:49;-1.80;99.90
34147;DHT22;20423;49.448;9.056;2023-04-03T04:22:16;-1.80;99.90
34147;DHT22;20423;49.448;9.056;2023-04-03T04:24:42;-1.80;99.90
34147;DHT22;20423;49.448;9.056;2023-04-03T04:27:08;-1.90;99.90
34147;DHT22;20423;49.448;9.056;2023-04-03T04:29:34;-1.90;99.90
34147;DHT22;20423;49.448;9.056;2023-04-03T04:32:04;-2.00;99.90
34147;DHT22;20423;49.448;9.056;2023-04-03T04:34:30;-1.90;99.90
34147;DHT22;20423;49.448;9.056;2023-04-03T04:36:57;-1.80;99.90
34147;DHT22;20423;49.448;9.056;2023-04-03T04:39:24;-1.80;99.90
34147;DHT22;20423;49.448;9.056;2023-04-03T04:41:51;-1.70;99.90
34147;DHT22;20423;49.448;9.056;2023-04-03T04:44:18;-1.80;99.90
34147;DHT22;20423;49.448;9.056;2023-04-03T04:47:12;-1.80;99.90
34147;DHT22;20423;49.448;9.056;2023-04-03T04:49:38;-1.80;99.90
34147;DHT22;20423;49.448;9.056;2023-04-03T04:52:05;-1.70;99.90
34147;DHT22;20423;49.448;9.056;2023-04-03T04:54:31;-1.60;99.90
34147;DHT22;20423;49.448;9.056;2023-04-03T04:56:58;-1.50;99.90
34147;DHT22;20423;49.448;9.056;2023-04-03T04:59:25;-1.40;99.90
34147;DHT22;20423;49.448;9.056;2023-04-03T05:01:53;-1.40;99.90
34147;DHT22;20423;49.448;9.056;2023-04-03T05:04:25;-1.30;99.90
34147;DHT22;20423;49.448;9.056;2023-04-03T05:06:56;-1.20;99.90
34147;DHT22;20423;49.448;9.056;2023-04-03T05:09:26;-1.20;99.90
34147;DHT22;20423;49.448;9.056;2023-04-03T05:11:52;-1.20;99.90
34147;DHT22;20423;49.448;9.056;2023-04-03T05:14:22;-1.20;99.90
34147;DHT22;20423;49.448;9.056;2023-04-03T05:16:49;-1.10;99.90
34147;DHT22;20423;49.448;9.056;2023-04-03T05:19:20;-1.10;99.90
34147;DHT22;20423;49.448;9.056;2023-04-03T05:21:46;-1.00;99.90
34147;DHT22;20423;49.448;9.056;2023-04-03T05:24:15;-0.90;99.90
34147;DHT22;20423;49.448;9.056;2023-04-03T05:26:43;-0.90;99.90
34147;DHT22;20423;49.448;9.056;2023-04-03T05:29:10;-0.80;99.90
34147;DHT22;20423;49.448;9.056;2023-04-03T05:31:37;-0.80;99.90
34147;DHT22;20423;49.448;9.056;2023-04-03T05:34:03;-0.80;99.90
34147;DHT22;20423;49.448;9.056;2023-04-03T05:36:31;-0.70;99.90
34147;DHT22;20423;49.448;9.056;2023-04-03T05:39:02;-0.70;99.90
34147;DHT22;20423;49.448;9.056;2023-04-03T05:41:28;-0.70;99.90
34147;DHT22;20423;49.448;9.056;2023-04-03T05:43:54;-0.60;99.90
34147;DHT22;20423;49.448;9.056;2023-04-03T05:46:22;-0.60;99.90
34147;DHT22;20423;49.448;9.056;2023-04-03T05:48:52;-0.50;99.90
34147;DHT22;20423;49.448;9.056;2023-04-03T05:51:27;-0.40;99.90
34147;DHT22;20423;49.448;9.056;2023-04-03T05:54:19;-0.30;99.90
34147;DHT22;20423;49.448;9.056;2023-04-03T05:56:46;-0.20;99.90
34147;DHT22;20423;49.448;9.056;2023-04-03T05:59:13;-0.20;99.90
34147;DHT22;20423;49.448;9.056;2023-04-03T06:01:39;-0.10;99.90
34147;DHT22;20423;49.448;9.056;2023-04-03T06:04:05;-0.10;99.90
34147;DHT22;20423;49.448;9.056;2023-04-03T06:09:10;0.00;99.90
34147;DHT22;20423;49.448;9.056;2023-04-03T06:11:37;0.00;99.90
34147;DHT22;20423;49.448;9.056;2023-04-03T06:14:03;0.10;99.90
34147;DHT22;20423;49.448;9.056;2023-04-03T06:16:29;0.10;99.90
34147;DHT22;20423;49.448;9.056;2023-04-03T06:18:54;0.20;99.90
34147;DHT22;20423;49.448;9.056;2023-04-03T06:21:21;0.30;99.90
34147;DHT22;20423;49.448;9.056;2023-04-03T06:23:48;0.40;99.90
34147;DHT22;20423;49.448;9.056;2023-04-03T06:26:14;0.40;99.90
34147;DHT22;20423;49.448;9.056;2023-04-03T06:28:40;0.50;99.90
34147;DHT22;20423;49.448;9.056;2023-04-03T06:31:05;0.50;99.90
34147;DHT22;20423;49.448;9.056;2023-04-03T06:33:31;0.60;99.90
34147;DHT22;20423;49.448;9.056;2023-04-03T06:36:02;0.60;99.90
34147;DHT22;20423;49.448;9.056;2023-04-03T06:38:29;0.70;99.90
34147;DHT22;20423;49.448;9.056;2023-04-03T06:40:55;0.70;99.90
34147;DHT22;20423;49.448;9.056;2023-04-03T06:43:21;0.70;99.90
34147;DHT22;20423;49.448;9.056;2023-04-03T06:45:48;0.60;99.90
34147;DHT22;20423;49.448;9.056;2023-04-03T06:48:14;0.70;99.90
34147;DHT22;20423;49.448;9.056;2023-04-03T06:50:40;0.70;99.90
34147;DHT22;20423;49.448;9.056;2023-04-03T06:53:06;0.70;99.90
34147;DHT22;20423;49.448;9.056;2023-04-03T06:55:33;0.80;99.90
34147;DHT22;20423;49.448;9.056;2023-04-03T06:57:59;0.80;99.90
34147;DHT22;20423;49.448;9.056;2023-04-03T07:00:25;0.90;99.90
34147;DHT22;20423;49.448;9.056;2023-04-03T07:02:51;1.00;99.90
34147;DHT22;20423;49.448;9.056;2023-04-03T07:05:18;1.10;99.90
34147;DHT22;20423;49.448;9.056;2023-04-03T07:07:44;1.20;99.90
34147;DHT22;20423;49.448;9.056;2023-04-03T07:10:10;1.10;99.90
34147;DHT22;20423;49.448;9.056;2023-04-03T07:12:37;1.10;99.90
34147;DHT22;20423;49.448;9.056;2023-04-03T07:15:05;1.10;99.90
34147;DHT22;20423;49.448;9.056;2023-04-03T07:17:31;1.10;99.90
34147;DHT22;20423;49.448;9.056;2023-04-03T07:19:57;1.10;99.90
34147;DHT22;20423;49.448;9.056;2023-04-03T07:22:23;1.20;99.90
34147;DHT22;20423;49.448;9.056;2023-04-03T07:24:49;1.10;99.90
34147;DHT22;20423;49.448;9.056;2023-04-03T07:27:17;1.10;99.90
34147;DHT22;20423;49.448;9.056;2023-04-03T07:29:43;1.20;99.90
34147;DHT22;20423;49.448;9.056;2023-04-03T07:32:11;1.20;99.90
34147;DHT22;20423;49.448;9.056;2023-04-03T07:34:37;1.20;99.90
34147;DHT22;20423;49.448;9.056;2023-04-03T07:37:03;1.30;99.90
34147;DHT22;20423;49.448;9.056;2023-04-03T07:39:30;1.20;99.90
34147;DHT22;20423;49.448;9.056;2023-04-03T07:41:56;1.30;99.90
34147;DHT22;20423;49.448;9.056;2023-04-03T07:44:21;1.30;99.90
34147;DHT22;20423;49.448;9.056;2023-04-03T07:46:47;1.40;99.90
34147;DHT22;20423;49.448;9.056;2023-04-03T07:49:14;1.50;99.90
34147;DHT22;20423;49.448;9.056;2023-04-03T07:51:40;1.50;99.90
34147;DHT22;20423;49.448;9.056;2023-04-03T07:54:06;1.60;99.90
34147;DHT22;20423;49.448;9.056;2023-04-03T07:56:32;1.70;99.90
34147;DHT22;20423;49.448;9.056;2023-04-03T07:58:58;1.80;99.90
34147;DHT22;20423;49.448;9.056;2023-04-03T08:01:24;1.80;99.90
34147;DHT22;20423;49.448;9.056;2023-04-03T08:03:50;1.80;99.90
34147;DHT22;20423;49.448;9.056;2023-04-03T08:06:16;1.90;99.90
34147;DHT22;20423;49.448;9.056;2023-04-03T08:08:42;1.90;99.90
34147;DHT22;20423;49.448;9.056;2023-04-03T08:11:10;2.10;99.90
34147;DHT22;20423;49.448;9.056;2023-04-03T08:13:36;2.10;99.90
34147;DHT22;20423;49.448;9.056;2023-04-03T08:16:10;2.10;99.90
34147;DHT22;20423;49.448;9.056;2023-04-03T08:18:36;2.10;99.90
34147;DHT22;20423;49.448;9.056;2023-04-03T08:21:06;2.10;99.90
34147;DHT22;20423;49.448;9.056;2023-04-03T08:23:32;2.20;99.90
34147;DHT22;20423;49.448;9.056;2023-04-03T08:25:58;2.20;99.90
34147;DHT22;20423;49.448;9.056;2023-04-03T08:28:24;2.20;99.90
34147;DHT22;20423;49.448;9.056;2023-04-03T08:30:49;2.20;99.90
34147;DHT22;20423;49.448;9.056;2023-04-03T08:33:16;2.40;99.90
34147;DHT22;20423;49.448;9.056;2023-04-03T08:35:42;2.40;99.90
34147;DHT22;20423;49.448;9.056;2023-04-03T08:38:09;2.50;99.90
34147;DHT22;20423;49.448;9.056;2023-04-03T08:40:34;2.50;99.90
34147;DHT22;20423;49.448;9.056;2023-04-03T08:43:10;2.50;99.90
34147;DHT22;20423;49.448;9.056;2023-04-03T08:45:53;2.60;99.90
34147;DHT22;20423;49.448;9.056;2023-04-03T08:48:34;2.70;99.90
34147;DHT22;20423;49.448;9.056;2023-04-03T08:51:04;2.80;99.90
34147;DHT22;20423;49.448;9.056;2023-04-03T08:53:34;3.30;99.90
34147;DHT22;20423;49.448;9.056;2023-04-03T08:56:06;4.80;99.90
34147;DHT22;20423;49.448;9.056;2023-04-03T08:58:42;6.30;99.90
34147;DHT22;20423;49.448;9.056;2023-04-03T09:01:46;7.50;99.90
34147;DHT22;20423;49.448;9.056;2023-04-03T09:04:12;7.90;99.90
34147;DHT22;20423;49.448;9.056;2023-04-03T09:06:39;8.30;99.90
34147;DHT22;20423;49.448;9.056;2023-04-03T09:09:15;9.20;99.90
34147;DHT22;20423;49.448;9.056;2023-04-03T09:17:44;10.40;96.20
34147;DHT22;20423;49.448;9.056;2023-04-03T09:22:47;10.50;92.70
34147;DHT22;20423;49.448;9.056;2023-04-03T09:25:23;8.60;94.20
34147;DHT22;20423;49.448;9.056;2023-04-03T09:27:49;7.90;98.50
34147;DHT22;20423;49.448;9.056;2023-04-03T09:30:19;7.80;98.90
34147;DHT22;20423;49.448;9.056;2023-04-03T09:32:46;7.50;99.90
34147;DHT22;20423;49.448;9.056;2023-04-03T09:35:26;7.60;99.90
34147;DHT22;20423;49.448;9.056;2023-04-03T09:40:50;7.00;99.90
34147;DHT22;20423;49.448;9.056;2023-04-03T09:43:37;6.70;99.90
34147;DHT22;20423;49.448;9.056;2023-04-03T09:46:32;6.00;99.90
34147;DHT22;20423;49.448;9.056;2023-04-03T09:49:04;5.40;99.90
34147;DHT22;20423;49.448;9.056;2023-04-03T09:51:31;5.60;99.90
34147;DHT22;20423;49.448;9.056;2023-04-03T09:53:57;5.90;99.90
34147;DHT22;20423;49.448;9.056;2023-04-03T09:56:28;6.30;99.90
34147;DHT22;20423;49.448;9.056;2023-04-03T10:01:31;5.90;99.90
34147;DHT22;20423;49.448;9.056;2023-04-03T10:04:05;6.00;99.90
34147;DHT22;20423;49.448;9.056;2023-04-03T10:06:34;6.30;99.90
34147;DHT22;20423;49.448;9.056;2023-04-03T10:09:05;6.40;99.90
34147;DHT22;20423;49.448;9.056;2023-04-03T10:11:32;6.40;99.90
34147;DHT22;20423;49.448;9.056;2023-04-03T10:14:02;6.40;99.90
34147;DHT22;20423;49.448;9.056;2023-04-03T10:16:38;6.30;99.90
34147;DHT22;20423;49.448;9.056;2023-04-03T10:21:54;6.30;99.90
34147;DHT22;20423;49.448;9.056;2023-04-03T10:27:04;6.30;99.90
34147;DHT22;20423;49.448;9.056;2023-04-03T10:29:43;6.00;99.90
34147;DHT22;20423;49.448;9.056;2023-04-03T10:32:29;5.90;99.90
34147;DHT22;20423;49.448;9.056;2023-04-03T10:35:25;5.70;99.90
34147;DHT22;20423;49.448;9.056;2023-04-03T10:38:24;5.60;99.90
34147;DHT22;20423;49.448;9.056;2023-04-03T10:41:17;5.40;99.90
34147;DHT22;20423;49.448;9.056;2023-04-03T10:52:42;6.00;99.90
34147;DHT22;20423;49.448;9.056;2023-04-03T10:57:30;5.80;99.90
34147;DHT22;20423;49.448;9.056;2023-04-03T10:59:56;5.80;99.90
34147;DHT22;20423;49.448;9.056;2023-04-03T11:02:32;5.70;99.90
34147;DHT22;20423;49.448;9.056;2023-04-03T11:05:06;5.50;99.90
34147;DHT22;20423;49.448;9.056;2023-04-03T11:07:47;5.40;99.90
34147;DHT22;20423;49.448;9.056;2023-04-03T11:10:25;5.40;99.90
34147;DHT22;20423;49.448;9.056;2023-04-03T11:13:04;5.00;99.90
34147;DHT22;20423;49.448;9.056;2023-04-03T11:15:32;5.00;99.90
34147;DHT22;20423;49.448;9.056;2023-04-03T11:18:25;5.30;99.90
34147;DHT22;20423;49.448;9.056;2023-04-03T11:21:27;5.60;99.90
34147;DHT22;20423;49.448;9.056;2023-04-03T11:23:56;6.10;99.90
34147;DHT22;20423;49.448;9.056;2023-04-03T11:26:27;6.80;99.90
34147;DHT22;20423;49.448;9.056;2023-04-03T11:28:59;6.70;99.90
34147;DHT22;20423;49.448;9.056;2023-04-03T11:36:58;6.10;99.90
34147;DHT22;20423;49.448;9.056;2023-04-03T11:39:29;6.20;99.90
34147;DHT22;20423;49.448;9.056;2023-04-03T11:44:42;6.80;99.90
34147;DHT22;20423;49.448;9.056;2023-04-03T11:47:12;6.80;99.90
34147;DHT22;20423;49.448;9.056;2023-04-03T11:50:04;6.30;99.90
34147;DHT22;20423;49.448;9.056;2023-04-03T12:05:55;6.50;99.90
34147;DHT22;20423;49.448;9.056;2023-04-03T12:08:28;6.80;99.90
34147;DHT22;20423;49.448;9.056;2023-04-03T12:19:27;7.00;99.90
34147;DHT22;20423;49.448;9.056;2023-04-03T12:24:35;7.80;99.90
34147;DHT22;20423;49.448;9.056;2023-04-03T12:27:03;7.30;99.90
34147;DHT22;20423;49.448;9.056;2023-04-03T12:30:25;6.90;99.90
34147;DHT22;20423;49.448;9.056;2023-04-03T12:40:58;7.30;99.90
34147;DHT22;20423;49.448;9.056;2023-04-03T12:46:37;9.00;99.90
34147;DHT22;20423;49.448;9.056;2023-04-03T12:49:37;9.40;96.40
34147;DHT22;20423;49.448;9.056;2023-04-03T12:52:04;9.30;93.60
34147;DHT22;20423;49.448;9.056;2023-04-03T12:54:38;9.10;95.30
34147;DHT22;20423;49.448;9.056;2023-04-03T12:57:16;9.70;92.70
34147;DHT22;20423;49.448;9.056;2023-04-03T12:59:43;9.30;91.10
34147;DHT22;20423;49.448;9.056;2023-04-03T13:02:30;9.50;93.80
34147;DHT22;20423;49.448;9.056;2023-04-03T13:04:59;8.90;91.20
34147;DHT22;20423;49.448;9.056;2023-04-03T13:07:35;8.70;93.10
34147;DHT22;20423;49.448;9.056;2023-04-03T13:12:34;8.80;94.60
34147;DHT22;20423;49.448;9.056;2023-04-03T13:15:14;8.30;91.00
34147;DHT22;20423;49.448;9.056;2023-04-03T13:17:42;8.00;91.70
34147;DHT22;20423;49.448;9.056;2023-04-03T13:20:14;8.00;91.20
34147;DHT22;20423;49.448;9.056;2023-04-03T13:25:16;8.40;92.40
34147;DHT22;20423;49.448;9.056;2023-04-03T13:27:44;7.70;91.50
34147;DHT22;20423;49.448;9.056;2023-04-03T13:30:27;6.80;93.20
34147;DHT22;20423;49.448;9.056;2023-04-03T13:32:55;7.10;94.60
34147;DHT22;20423;49.448;9.056;2023-04-03T13:38:06;8.20;93.60
34147;DHT22;20423;49.448;9.056;2023-04-03T13:40:32;7.90;92.90
34147;DHT22;20423;49.448;9.056;2023-04-03T13:43:16;7.00;91.90
34147;DHT22;20423;49.448;9.056;2023-04-03T13:48:47;6.10;95.60
34147;DHT22;20423;49.448;9.056;2023-04-03T13:53:46;6.10;96.80
34147;DHT22;20423;49.448;9.056;2023-04-03T13:56:23;6.00;95.70
34147;DHT22;20423;49.448;9.056;2023-04-03T14:01:32;5.90;95.40
34147;DHT22;20423;49.448;9.056;2023-04-03T14:04:09;6.00;98.20
34147;DHT22;20423;49.448;9.056;2023-04-03T14:06:45;5.90;98.10
34147;DHT22;20423;49.448;9.056;2023-04-03T14:09:21;5.60;96.80
34147;DHT22;20423;49.448;9.056;2023-04-03T14:11:53;5.70;97.60
34147;DHT22;20423;49.448;9.056;2023-04-03T14:14:31;5.50;96.70
34147;DHT22;20423;49.448;9.056;2023-04-03T14:16:59;5.50;96.90
34147;DHT22;20423;49.448;9.056;2023-04-03T14:19:28;5.60;99.80
34147;DHT22;20423;49.448;9.056;2023-04-03T14:21:56;5.70;97.60
34147;DHT22;20423;49.448;9.056;2023-04-03T14:24:23;5.60;97.90
34147;DHT22;20423;49.448;9.056;2023-04-03T14:26:51;5.80;97.20
34147;DHT22;20423;49.448;9.056;2023-04-03T14:29:18;6.00;96.10
34147;DHT22;20423;49.448;9.056;2023-04-03T14:31:45;5.90;96.90
34147;DHT22;20423;49.448;9.056;2023-04-03T14:34:12;6.10;97.80
34147;DHT22;20423;49.448;9.056;2023-04-03T14:36:39;6.10;97.10
34147;DHT22;20423;49.448;9.056;2023-04-03T14:39:08;6.10;97.70
34147;DHT22;20423;49.448;9.056;2023-04-03T14:41:36;6.20;99.20
34147;DHT22;20423;49.448;9.056;2023-04-03T14:44:02;6.10;97.10
34147;DHT22;20423;49.448;9.056;2023-04-03T14:46:34;5.90;97.70
34147;DHT22;20423;49.448;9.056;2023-04-03T14:49:00;5.60;98.30
34147;DHT22;20423;49.448;9.056;2023-04-03T14:51:27;5.40;97.50
34147;DHT22;20423;49.448;9.056;2023-04-03T14:53:53;5.20;97.80
34147;DHT22;20423;49.448;9.056;2023-04-03T14:56:23;5.40;99.10
34147;DHT22;20423;49.448;9.056;2023-04-03T14:58:56;5.50;99.40
34147;DHT22;20423;49.448;9.056;2023-04-03T15:01:22;5.60;98.00
34147;DHT22;20423;49.448;9.056;2023-04-03T15:03:49;5.60;98.90
34147;DHT22;20423;49.448;9.056;2023-04-03T15:06:15;5.70;97.20
34147;DHT22;20423;49.448;9.056;2023-04-03T15:08:42;5.50;95.40
34147;DHT22;20423;49.448;9.056;2023-04-03T15:11:12;5.60;94.70
34147;DHT22;20423;49.448;9.056;2023-04-03T15:13:41;5.60;94.20
34147;DHT22;20423;49.448;9.056;2023-04-03T15:16:17;5.60;95.50
34147;DHT22;20423;49.448;9.056;2023-04-03T15:18:44;5.70;96.10
34147;DHT22;20423;49.448;9.056;2023-04-03T15:21:10;5.70;96.20
34147;DHT22;20423;49.448;9.056;2023-04-03T15:23:36;5.80;97.10
34147;DHT22;20423;49.448;9.056;2023-04-03T15:26:03;5.90;96.10
34147;DHT22;20423;49.448;9.056;2023-04-03T15:28:41;5.90;96.60
34147;DHT22;20423;49.448;9.056;2023-04-03T15:31:07;5.70;92.80
34147;DHT22;20423;49.448;9.056;2023-04-03T15:33:34;5.40;94.10
34147;DHT22;20423;49.448;9.056;2023-04-03T15:36:03;5.10;94.90
34147;DHT22;20423;49.448;9.056;2023-04-03T15:38:29;5.10;95.10
34147;DHT22;20423;49.448;9.056;2023-04-03T15:40:55;5.20;94.60
34147;DHT22;20423;49.448;9.056;2023-04-03T15:43:22;5.40;92.80
34147;DHT22;20423;49.448;9.056;2023-04-03T15:45:49;5.70;93.60
34147;DHT22;20423;49.448;9.056;2023-04-03T15:48:15;6.10;94.20
34147;DHT22;20423;49.448;9.056;2023-04-03T15:50:41;6.40;94.40
34147;DHT22;20423;49.448;9.056;2023-04-03T15:53:08;6.50;96.90
34147;DHT22;20423;49.448;9.056;2023-04-03T15:55:35;6.40;94.20
34147;DHT22;20423;49.448;9.056;2023-04-03T15:58:01;6.50;92.90
34147;DHT22;20423;49.448;9.056;2023-04-03T16:00:28;6.70;90.90
34147;DHT22;20423;49.448;9.056;2023-04-03T16:02:58;7.40;91.60
34147;DHT22;20423;49.448;9.056;2023-04-03T16:05:24;7.80;86.20
34147;DHT22;20423;49.448;9.056;2023-04-03T16:07:51;8.10;87.40
34147;DHT22;20423;49.448;9.056;2023-04-03T16:10:18;8.50;81.10
34147;DHT22;20423;49.448;9.056;2023-04-03T16:12:44;8.80;82.10
34147;DHT22;20423;49.448;9.056;2023-04-03T16:15:10;8.90;81.00
34147;DHT22;20423;49.448;9.056;2023-04-03T16:17:37;9.00;80.00
34147;DHT22;20423;49.448;9.056;2023-04-03T16:20:04;9.20;77.60
34147;DHT22;20423;49.448;9.056;2023-04-03T16:22:31;9.60;77.10
34147;DHT22;20423;49.448;9.056;2023-04-03T16:24:57;9.40;74.50
34147;DHT22;20423;49.448;9.056;2023-04-03T16:27:25;8.90;76.30
34147;DHT22;20423;49.448;9.056;2023-04-03T16:29:56;8.30;76.10
34147;DHT22;20423;49.448;9.056;2023-04-03T16:32:23;8.00;78.40
34147;DHT22;20423;49.448;9.056;2023-04-03T16:34:49;7.70;79.50
34147;DHT22;20423;49.448;9.056;2023-04-03T16:37:16;8.20;81.00
34147;DHT22;20423;49.448;9.056;2023-04-03T16:39:42;8.40;79.60
34147;DHT22;20423;49.448;9.056;2023-04-03T16:42:11;8.50;79.30
34147;DHT22;20423;49.448;9.056;2023-04-03T16:44:37;8.80;77.80
34147;DHT22;20423;49.448;9.056;2023-04-03T16:47:05;8.50;78.50
34147;DHT22;20423;49.448;9.056;2023-04-03T16:49:34;7.70;78.80
34147;DHT22;20423;49.448;9.056;2023-04-03T16:52:01;7.10;80.50
34147;DHT22;20423;49.448;9.056;2023-04-03T16:54:28;7.10;83.50
34147;DHT22;20423;49.448;9.056;2023-04-03T16:56:54;6.90;84.60
34147;DHT22;20423;49.448;9.056;2023-04-03T16:59:20;6.40;86.10
34147;DHT22;20423;49.448;9.056;2023-04-03T17:01:46;5.80;89.70
34147;DHT22;20423;49.448;9.056;2023-04-03T17:04:12;5.30;92.00
34147;DHT22;20423;49.448;9.056;2023-04-03T17:06:38;5.00;93.60
34147;DHT22;20423;49.448;9.056;2023-04-03T17:09:04;4.70;94.30
34147;DHT22;20423;49.448;9.056;2023-04-03T17:11:31;4.40;95.60
34147;DHT22;20423;49.448;9.056;2023-04-03T17:13:57;4.20;96.70
34147;DHT22;20423;49.448;9.056;2023-04-03T17:16:23;4.00;95.80
34147;DHT22;20423;49.448;9.056;2023-04-03T17:18:50;3.80;97.80
34147;DHT22;20423;49.448;9.056;2023-04-03T17:21:16;3.70;99.10
34147;DHT22;20423;49.448;9.056;2023-04-03T17:23:45;3.60;99.90
34147;DHT22;20423;49.448;9.056;2023-04-03T17:26:11;3.50;99.90
34147;DHT22;20423;49.448;9.056;2023-04-03T17:28:37;3.40;99.90
34147;DHT22;20423;49.448;9.056;2023-04-03T17:31:05;3.30;99.90
34147;DHT22;20423;49.448;9.056;2023-04-03T17:33:31;3.30;99.90
34147;DHT22;20423;49.448;9.056;2023-04-03T17:35:58;3.10;99.90
34147;DHT22;20423;49.448;9.056;2023-04-03T17:38:24;3.00;99.90
34147;DHT22;20423;49.448;9.056;2023-04-03T17:40:49;2.90;99.90